sensor_id;sensor_type;location;lat;lon;timestamp;temperature;humidity
47845;DHT22;33605;48.822;8.796;2023-02-14T00:00:50;5.60;41.00
47845;DHT22;33605;48.822;8.796;2023-02-14T00:03:16;5.60;41.10
47845;DHT22;33605;48.822;8.796;2023-02-14T00:05:41;5.60;41.30
47845;DHT22;33605;48.822;8.796;2023-02-14T00:08:07;5.60;41.40
47845;DHT22;33605;48.822;8.796;2023-02-14T00:10:32;5.60;41.60
47845;DHT22;33605;48.822;8.796;2023-02-14T00:12:58;5.50;41.40
47845;DHT22;33605;48.822;8.796;2023-02-14T00:15:24;5.50;41.40
47845;DHT22;33605;48.822;8.796;2023-02-14T00:17:55;5.50;41.50
47845;DHT22;33605;48.822;8.796;2023-02-14T00:20:22;5.50;41.50
47845;DHT22;33605;48.822;8.796;2023-02-14T00:22:47;5.50;41.40
47845;DHT22;33605;48.822;8.796;2023-02-14T00:25:13;5.40;41.30
47845;DHT22;33605;48.822;8.796;2023-02-14T00:27:39;5.40;41.30
47845;DHT22;33605;48.822;8.796;2023-02-14T00:30:09;5.40;41.30
47845;DHT22;33605;48.822;8.796;2023-02-14T00:32:37;5.40;41.40
47845;DHT22;33605;48.822;8.796;2023-02-14T00:35:03;5.40;41.40
47845;DHT22;33605;48.822;8.796;2023-02-14T00:37:47;5.40;41.50
47845;DHT22;33605;48.822;8.796;2023-02-14T00:40:13;5.40;41.70
47845;DHT22;33605;48.822;8.796;2023-02-14T00:42:39;5.40;41.70
47845;DHT22;33605;48.822;8.796;2023-02-14T00:45:05;5.40;41.80
47845;DHT22;33605;48.822;8.796;2023-02-14T00:47:30;5.40;41.80
47845;DHT22;33605;48.822;8.796;2023-02-14T00:49:56;5.40;41.80
47845;DHT22;33605;48.822;8.796;2023-02-14T00:52:28;5.40;42.40
47845;DHT22;33605;48.822;8.796;2023-02-14T00:54:54;5.40;41.80
47845;DHT22;33605;48.822;8.796;2023-02-14T00:57:20;5.40;41.70
47845;DHT22;33605;48.822;8.796;2023-02-14T00:59:46;5.40;41.70
47845;DHT22;33605;48.822;8.796;2023-02-14T01:02:11;5.30;41.80
47845;DHT22;33605;48.822;8.796;2023-02-14T01:04:37;5.30;42.00
47845;DHT22;33605;48.822;8.796;2023-02-14T01:07:02;5.30;42.00
47845;DHT22;33605;48.822;8.796;2023-02-14T01:09:28;5.30;42.00
47845;DHT22;33605;48.822;8.796;2023-02-14T01:11:53;5.30;42.00
47845;DHT22;33605;48.822;8.796;2023-02-14T01:14:19;5.30;42.30
47845;DHT22;33605;48.822;8.796;2023-02-14T01:16:45;5.20;42.30
47845;DHT22;33605;48.822;8.796;2023-02-14T01:19:10;5.20;42.40
47845;DHT22;33605;48.822;8.796;2023-02-14T01:21:36;5.20;42.40
47845;DHT22;33605;48.822;8.796;2023-02-14T01:24:04;5.20;42.40
47845;DHT22;33605;48.822;8.796;2023-02-14T01:26:31;5.10;42.20
47845;DHT22;33605;48.822;8.796;2023-02-14T01:28:57;5.10;42.30
47845;DHT22;33605;48.822;8.796;2023-02-14T01:31:25;5.10;42.60
47845;DHT22;33605;48.822;8.796;2023-02-14T01:33:52;5.10;42.70
47845;DHT22;33605;48.822;8.796;2023-02-14T01:36:30;5.10;42.80
47845;DHT22;33605;48.822;8.796;2023-02-14T01:38:59;5.10;42.70
47845;DHT22;33605;48.822;8.796;2023-02-14T01:41:28;5.00;42.50
47845;DHT22;33605;48.822;8.796;2023-02-14T01:44:05;5.00;42.50
47845;DHT22;33605;48.822;8.796;2023-02-14T01:46:34;5.00;42.50
47845;DHT22;33605;48.822;8.796;2023-02-14T01:49:19;5.00;42.40
47845;DHT22;33605;48.822;8.796;2023-02-14T01:51:49;5.00;42.40
47845;DHT22;33605;48.822;8.796;2023-02-14T01:54:18;5.00;42.30
47845;DHT22;33605;48.822;8.796;2023-02-14T01:56:50;4.90;42.20
47845;DHT22;33605;48.822;8.796;2023-02-14T01:59:21;4.90;42.10
47845;DHT22;33605;48.822;8.796;2023-02-14T02:01:49;4.90;42.00
47845;DHT22;33605;48.822;8.796;2023-02-14T02:04:29;4.90;42.20
47845;DHT22;33605;48.822;8.796;2023-02-14T02:07:00;4.90;42.50
47845;DHT22;33605;48.822;8.796;2023-02-14T02:09:36;4.90;42.40
47845;DHT22;33605;48.822;8.796;2023-02-14T02:12:03;4.90;42.60
47845;DHT22;33605;48.822;8.796;2023-02-14T02:14:29;4.80;42.50
47845;DHT22;33605;48.822;8.796;2023-02-14T02:22:46;4.80;42.80
47845;DHT22;33605;48.822;8.796;2023-02-14T02:31:08;4.70;43.00
47845;DHT22;33605;48.822;8.796;2023-02-14T02:44:28;4.60;43.00
47845;DHT22;33605;48.822;8.796;2023-02-14T02:47:08;4.60;43.00
47845;DHT22;33605;48.822;8.796;2023-02-14T03:01:28;4.60;42.90
47845;DHT22;33605;48.822;8.796;2023-02-14T03:04:09;4.50;42.80
47845;DHT22;33605;48.822;8.796;2023-02-14T03:06:55;4.50;43.00
47845;DHT22;33605;48.822;8.796;2023-02-14T03:14:49;4.40;43.10
47845;DHT22;33605;48.822;8.796;2023-02-14T03:20:45;4.30;43.10
47845;DHT22;33605;48.822;8.796;2023-02-14T03:23:21;4.30;43.20
47845;DHT22;33605;48.822;8.796;2023-02-14T03:29:10;4.30;43.20
47845;DHT22;33605;48.822;8.796;2023-02-14T03:34:34;4.20;43.20
47845;DHT22;33605;48.822;8.796;2023-02-14T03:37:10;4.20;43.10
47845;DHT22;33605;48.822;8.796;2023-02-14T03:42:25;4.10;42.80
47845;DHT22;33605;48.822;8.796;2023-02-14T03:44:53;4.10;42.90
47845;DHT22;33605;48.822;8.796;2023-02-14T03:47:23;4.10;43.10
47845;DHT22;33605;48.822;8.796;2023-02-14T03:50:00;4.00;43.30
47845;DHT22;33605;48.822;8.796;2023-02-14T03:52:28;4.00;43.40
47845;DHT22;33605;48.822;8.796;2023-02-14T03:54:56;4.00;43.40
47845;DHT22;33605;48.822;8.796;2023-02-14T03:57:27;4.00;43.60
47845;DHT22;33605;48.822;8.796;2023-02-14T03:59:54;3.90;43.40
47845;DHT22;33605;48.822;8.796;2023-02-14T04:04:50;3.90;43.70
47845;DHT22;33605;48.822;8.796;2023-02-14T04:07:21;3.90;43.70
47845;DHT22;33605;48.822;8.796;2023-02-14T04:09:47;3.80;43.70
47845;DHT22;33605;48.822;8.796;2023-02-14T04:12:14;3.80;43.70
47845;DHT22;33605;48.822;8.796;2023-02-14T04:14:40;3.80;43.60
47845;DHT22;33605;48.822;8.796;2023-02-14T04:17:06;3.80;43.50
47845;DHT22;33605;48.822;8.796;2023-02-14T04:19:50;3.80;43.70
47845;DHT22;33605;48.822;8.796;2023-02-14T04:22:16;3.80;43.70
47845;DHT22;33605;48.822;8.796;2023-02-14T04:24:42;3.80;43.70
47845;DHT22;33605;48.822;8.796;2023-02-14T04:27:07;3.80;43.80
47845;DHT22;33605;48.822;8.796;2023-02-14T04:32:04;3.70;43.60
47845;DHT22;33605;48.822;8.796;2023-02-14T04:34:30;3.70;43.70
47845;DHT22;33605;48.822;8.796;2023-02-14T04:36:55;3.70;43.70
47845;DHT22;33605;48.822;8.796;2023-02-14T04:39:21;3.70;43.60
47845;DHT22;33605;48.822;8.796;2023-02-14T04:41:46;3.70;43.70
47845;DHT22;33605;48.822;8.796;2023-02-14T04:44:12;3.70;43.70
47845;DHT22;33605;48.822;8.796;2023-02-14T04:46:38;3.70;43.90
47845;DHT22;33605;48.822;8.796;2023-02-14T04:49:03;3.70;43.90
47845;DHT22;33605;48.822;8.796;2023-02-14T04:51:29;3.70;43.90
47845;DHT22;33605;48.822;8.796;2023-02-14T04:53:54;3.70;43.90
47845;DHT22;33605;48.822;8.796;2023-02-14T04:56:20;3.70;43.80
47845;DHT22;33605;48.822;8.796;2023-02-14T04:58:45;3.60;43.70
47845;DHT22;33605;48.822;8.796;2023-02-14T05:01:11;3.70;43.80
47845;DHT22;33605;48.822;8.796;2023-02-14T05:03:37;3.60;43.80
47845;DHT22;33605;48.822;8.796;2023-02-14T05:06:02;3.60;43.80
47845;DHT22;33605;48.822;8.796;2023-02-14T05:08:28;3.60;43.80
47845;DHT22;33605;48.822;8.796;2023-02-14T05:10:54;3.60;43.80
47845;DHT22;33605;48.822;8.796;2023-02-14T05:13:19;3.60;43.80
47845;DHT22;33605;48.822;8.796;2023-02-14T05:15:45;3.60;43.70
47845;DHT22;33605;48.822;8.796;2023-02-14T05:18:11;3.60;43.80
47845;DHT22;33605;48.822;8.796;2023-02-14T05:20:36;3.50;43.80
47845;DHT22;33605;48.822;8.796;2023-02-14T05:23:02;3.50;43.90
47845;DHT22;33605;48.822;8.796;2023-02-14T05:25:30;3.50;43.90
47845;DHT22;33605;48.822;8.796;2023-02-14T05:27:56;3.50;44.00
47845;DHT22;33605;48.822;8.796;2023-02-14T05:30:22;3.40;43.90
47845;DHT22;33605;48.822;8.796;2023-02-14T05:32:52;3.40;43.90
47845;DHT22;33605;48.822;8.796;2023-02-14T05:35:17;3.30;43.90
47845;DHT22;33605;48.822;8.796;2023-02-14T05:37:43;3.30;43.90
47845;DHT22;33605;48.822;8.796;2023-02-14T05:40:09;3.30;43.80
47845;DHT22;33605;48.822;8.796;2023-02-14T05:42:37;3.30;43.60
47845;DHT22;33605;48.822;8.796;2023-02-14T05:45:04;3.30;43.60
47845;DHT22;33605;48.822;8.796;2023-02-14T05:47:30;3.20;43.60
47845;DHT22;33605;48.822;8.796;2023-02-14T05:49:55;3.30;43.60
47845;DHT22;33605;48.822;8.796;2023-02-14T05:52:21;3.20;43.40
47845;DHT22;33605;48.822;8.796;2023-02-14T05:54:46;3.20;43.50
47845;DHT22;33605;48.822;8.796;2023-02-14T05:57:12;3.20;43.50
47845;DHT22;33605;48.822;8.796;2023-02-14T05:59:38;3.20;43.60
47845;DHT22;33605;48.822;8.796;2023-02-14T06:02:03;3.20;43.50
47845;DHT22;33605;48.822;8.796;2023-02-14T06:04:29;3.20;43.50
47845;DHT22;33605;48.822;8.796;2023-02-14T06:06:54;3.10;43.40
47845;DHT22;33605;48.822;8.796;2023-02-14T06:09:20;3.10;43.70
47845;DHT22;33605;48.822;8.796;2023-02-14T06:11:45;3.10;43.80
47845;DHT22;33605;48.822;8.796;2023-02-14T06:14:11;3.10;43.90
47845;DHT22;33605;48.822;8.796;2023-02-14T06:16:37;3.00;43.80
47845;DHT22;33605;48.822;8.796;2023-02-14T06:19:02;3.00;43.80
47845;DHT22;33605;48.822;8.796;2023-02-14T06:21:28;3.00;43.80
47845;DHT22;33605;48.822;8.796;2023-02-14T06:23:53;3.00;44.10
47845;DHT22;33605;48.822;8.796;2023-02-14T06:26:19;3.00;44.30
47845;DHT22;33605;48.822;8.796;2023-02-14T06:28:45;3.00;44.40
47845;DHT22;33605;48.822;8.796;2023-02-14T06:31:17;2.90;44.40
47845;DHT22;33605;48.822;8.796;2023-02-14T06:33:43;2.90;44.50
47845;DHT22;33605;48.822;8.796;2023-02-14T06:36:09;2.90;44.40
47845;DHT22;33605;48.822;8.796;2023-02-14T06:38:34;2.90;44.40
47845;DHT22;33605;48.822;8.796;2023-02-14T06:41:04;3.00;44.50
47845;DHT22;33605;48.822;8.796;2023-02-14T06:43:30;3.00;44.60
47845;DHT22;33605;48.822;8.796;2023-02-14T06:45:56;3.00;44.60
47845;DHT22;33605;48.822;8.796;2023-02-14T06:48:22;3.00;44.70
47845;DHT22;33605;48.822;8.796;2023-02-14T06:50:47;3.00;44.70
47845;DHT22;33605;48.822;8.796;2023-02-14T06:53:13;3.00;44.70
47845;DHT22;33605;48.822;8.796;2023-02-14T06:55:39;3.00;44.70
47845;DHT22;33605;48.822;8.796;2023-02-14T06:58:04;3.10;44.70
47845;DHT22;33605;48.822;8.796;2023-02-14T07:00:30;3.10;44.60
47845;DHT22;33605;48.822;8.796;2023-02-14T07:02:56;3.10;44.60
47845;DHT22;33605;48.822;8.796;2023-02-14T07:05:22;3.10;44.50
47845;DHT22;33605;48.822;8.796;2023-02-14T07:07:47;3.20;44.50
47845;DHT22;33605;48.822;8.796;2023-02-14T07:10:13;3.20;44.40
47845;DHT22;33605;48.822;8.796;2023-02-14T07:12:39;3.20;44.30
47845;DHT22;33605;48.822;8.796;2023-02-14T07:15:06;3.30;44.30
47845;DHT22;33605;48.822;8.796;2023-02-14T07:17:32;3.30;44.30
47845;DHT22;33605;48.822;8.796;2023-02-14T07:19:58;3.40;44.30
47845;DHT22;33605;48.822;8.796;2023-02-14T07:22:23;3.40;44.30
47845;DHT22;33605;48.822;8.796;2023-02-14T07:24:49;3.40;44.30
47845;DHT22;33605;48.822;8.796;2023-02-14T07:27:14;3.40;44.50
47845;DHT22;33605;48.822;8.796;2023-02-14T07:29:40;3.50;44.90
47845;DHT22;33605;48.822;8.796;2023-02-14T07:32:05;3.50;45.00
47845;DHT22;33605;48.822;8.796;2023-02-14T07:34:31;3.60;45.10
47845;DHT22;33605;48.822;8.796;2023-02-14T07:36:57;3.60;45.30
47845;DHT22;33605;48.822;8.796;2023-02-14T07:39:23;3.70;45.50
47845;DHT22;33605;48.822;8.796;2023-02-14T07:41:48;3.70;45.60
47845;DHT22;33605;48.822;8.796;2023-02-14T07:44:14;3.80;45.80
47845;DHT22;33605;48.822;8.796;2023-02-14T07:46:40;3.90;46.00
47845;DHT22;33605;48.822;8.796;2023-02-14T07:49:05;4.00;45.90
47845;DHT22;33605;48.822;8.796;2023-02-14T07:51:31;4.10;45.90
47845;DHT22;33605;48.822;8.796;2023-02-14T07:53:56;4.20;45.90
47845;DHT22;33605;48.822;8.796;2023-02-14T07:56:22;4.30;46.00
47845;DHT22;33605;48.822;8.796;2023-02-14T07:58:48;4.30;46.20
47845;DHT22;33605;48.822;8.796;2023-02-14T08:01:14;4.40;46.20
47845;DHT22;33605;48.822;8.796;2023-02-14T08:03:40;4.70;46.40
47845;DHT22;33605;48.822;8.796;2023-02-14T08:06:09;4.80;46.30
47845;DHT22;33605;48.822;8.796;2023-02-14T08:08:35;5.00;46.10
47845;DHT22;33605;48.822;8.796;2023-02-14T08:11:01;5.00;45.80
47845;DHT22;33605;48.822;8.796;2023-02-14T08:13:27;5.10;45.50
47845;DHT22;33605;48.822;8.796;2023-02-14T08:15:52;5.20;45.50
47845;DHT22;33605;48.822;8.796;2023-02-14T08:18:38;5.20;45.40
47845;DHT22;33605;48.822;8.796;2023-02-14T08:21:06;5.30;45.40
47845;DHT22;33605;48.822;8.796;2023-02-14T08:23:32;5.50;45.60
47845;DHT22;33605;48.822;8.796;2023-02-14T08:25:58;5.60;45.60
47845;DHT22;33605;48.822;8.796;2023-02-14T08:28:24;5.70;45.70
47845;DHT22;33605;48.822;8.796;2023-02-14T08:30:50;5.80;45.60
47845;DHT22;33605;48.822;8.796;2023-02-14T08:33:16;6.00;45.70
47845;DHT22;33605;48.822;8.796;2023-02-14T08:35:42;6.20;45.60
47845;DHT22;33605;48.822;8.796;2023-02-14T08:38:07;6.30;45.50
47845;DHT22;33605;48.822;8.796;2023-02-14T08:40:34;6.50;45.40
47845;DHT22;33605;48.822;8.796;2023-02-14T08:43:02;6.70;45.50
47845;DHT22;33605;48.822;8.796;2023-02-14T08:45:27;6.80;45.30
47845;DHT22;33605;48.822;8.796;2023-02-14T08:47:53;7.00;45.40
47845;DHT22;33605;48.822;8.796;2023-02-14T08:50:19;7.10;45.20
47845;DHT22;33605;48.822;8.796;2023-02-14T08:52:45;7.20;45.10
47845;DHT22;33605;48.822;8.796;2023-02-14T08:55:12;7.30;45.00
47845;DHT22;33605;48.822;8.796;2023-02-14T16:32:42;35.70;21.40
47845;DHT22;33605;48.822;8.796;2023-02-14T16:35:17;26.10;22.30
47845;DHT22;33605;48.822;8.796;2023-02-14T16:37:46;25.30;22.40
47845;DHT22;33605;48.822;8.796;2023-02-14T16:40:14;24.70;22.50
47845;DHT22;33605;48.822;8.796;2023-02-14T16:42:40;24.10;22.60
47845;DHT22;33605;48.822;8.796;2023-02-14T16:45:06;23.50;22.80
47845;DHT22;33605;48.822;8.796;2023-02-14T16:47:32;22.90;22.90
47845;DHT22;33605;48.822;8.796;2023-02-14T16:49:57;22.30;23.00
47845;DHT22;33605;48.822;8.796;2023-02-14T16:52:26;21.80;23.30
47845;DHT22;33605;48.822;8.796;2023-02-14T16:54:53;21.30;23.60
47845;DHT22;33605;48.822;8.796;2023-02-14T16:57:28;20.80;23.60
47845;DHT22;33605;48.822;8.796;2023-02-14T16:59:55;20.30;24.00
47845;DHT22;33605;48.822;8.796;2023-02-14T17:02:26;19.80;24.00
47845;DHT22;33605;48.822;8.796;2023-02-14T17:04:53;19.40;24.30
47845;DHT22;33605;48.822;8.796;2023-02-14T17:07:20;19.00;24.50
47845;DHT22;33605;48.822;8.796;2023-02-14T17:09:52;18.60;24.80
47845;DHT22;33605;48.822;8.796;2023-02-14T17:12:22;18.30;24.90
47845;DHT22;33605;48.822;8.796;2023-02-14T17:14:52;17.90;25.00
47845;DHT22;33605;48.822;8.796;2023-02-14T17:17:18;17.60;25.20
47845;DHT22;33605;48.822;8.796;2023-02-14T17:19:44;17.30;25.30
47845;DHT22;33605;48.822;8.796;2023-02-14T17:22:11;17.00;25.50
47845;DHT22;33605;48.822;8.796;2023-02-14T17:24:38;16.70;25.50
47845;DHT22;33605;48.822;8.796;2023-02-14T17:27:07;16.50;25.60
47845;DHT22;33605;48.822;8.796;2023-02-14T17:29:32;16.20;25.70
47845;DHT22;33605;48.822;8.796;2023-02-14T17:31:58;16.00;25.90
47845;DHT22;33605;48.822;8.796;2023-02-14T17:34:24;15.70;26.20
47845;DHT22;33605;48.822;8.796;2023-02-14T17:36:49;15.50;26.20
47845;DHT22;33605;48.822;8.796;2023-02-14T17:39:19;15.30;26.20
47845;DHT22;33605;48.822;8.796;2023-02-14T17:41:45;15.10;26.40
47845;DHT22;33605;48.822;8.796;2023-02-14T17:44:11;14.80;26.20
47845;DHT22;33605;48.822;8.796;2023-02-14T17:46:37;14.70;26.50
47845;DHT22;33605;48.822;8.796;2023-02-14T17:49:03;14.50;26.80
47845;DHT22;33605;48.822;8.796;2023-02-14T17:51:28;14.30;27.00
47845;DHT22;33605;48.822;8.796;2023-02-14T17:53:54;14.20;27.20
47845;DHT22;33605;48.822;8.796;2023-02-14T17:56:24;14.00;27.20
47845;DHT22;33605;48.822;8.796;2023-02-14T17:58:52;13.80;27.40
47845;DHT22;33605;48.822;8.796;2023-02-14T18:01:21;13.70;27.50
47845;DHT22;33605;48.822;8.796;2023-02-14T18:03:47;13.50;27.50
47845;DHT22;33605;48.822;8.796;2023-02-14T18:06:13;13.40;27.70
47845;DHT22;33605;48.822;8.796;2023-02-14T18:08:42;13.20;27.70
47845;DHT22;33605;48.822;8.796;2023-02-14T18:11:11;13.10;27.80
47845;DHT22;33605;48.822;8.796;2023-02-14T18:13:37;12.90;27.80
47845;DHT22;33605;48.822;8.796;2023-02-14T18:16:05;12.80;27.90
47845;DHT22;33605;48.822;8.796;2023-02-14T18:18:31;12.70;27.90
47845;DHT22;33605;48.822;8.796;2023-02-14T18:20:59;12.60;28.00
47845;DHT22;33605;48.822;8.796;2023-02-14T18:23:25;12.50;28.10
47845;DHT22;33605;48.822;8.796;2023-02-14T18:25:53;12.30;28.10
47845;DHT22;33605;48.822;8.796;2023-02-14T18:28:20;12.20;28.40
47845;DHT22;33605;48.822;8.796;2023-02-14T18:30:46;12.10;28.70
47845;DHT22;33605;48.822;8.796;2023-02-14T18:33:13;12.00;28.50
47845;DHT22;33605;48.822;8.796;2023-02-14T18:35:39;11.80;29.10
47845;DHT22;33605;48.822;8.796;2023-02-14T18:38:06;11.70;28.70
47845;DHT22;33605;48.822;8.796;2023-02-14T18:40:32;11.60;28.80
47845;DHT22;33605;48.822;8.796;2023-02-14T18:42:58;11.50;28.80
47845;DHT22;33605;48.822;8.796;2023-02-14T18:45:23;11.30;28.90
47845;DHT22;33605;48.822;8.796;2023-02-14T18:47:49;11.20;29.10
47845;DHT22;33605;48.822;8.796;2023-02-14T18:50:15;11.10;28.90
47845;DHT22;33605;48.822;8.796;2023-02-14T18:52:40;11.00;28.90
47845;DHT22;33605;48.822;8.796;2023-02-14T18:55:06;10.90;28.80
47845;DHT22;33605;48.822;8.796;2023-02-14T18:57:33;10.80;28.90
47845;DHT22;33605;48.822;8.796;2023-02-14T18:59:59;10.70;29.20
47845;DHT22;33605;48.822;8.796;2023-02-14T19:02:25;10.60;29.10
47845;DHT22;33605;48.822;8.796;2023-02-14T19:04:50;10.60;29.30
47845;DHT22;33605;48.822;8.796;2023-02-14T19:07:16;10.40;29.10
47845;DHT22;33605;48.822;8.796;2023-02-14T19:09:42;10.40;29.20
47845;DHT22;33605;48.822;8.796;2023-02-14T19:12:09;10.30;29.20
47845;DHT22;33605;48.822;8.796;2023-02-14T19:14:35;10.20;29.30
47845;DHT22;33605;48.822;8.796;2023-02-14T19:17:02;10.20;29.30
47845;DHT22;33605;48.822;8.796;2023-02-14T19:19:28;10.10;29.20
47845;DHT22;33605;48.822;8.796;2023-02-14T19:21:57;10.00;29.30
47845;DHT22;33605;48.822;8.796;2023-02-14T19:24:22;10.00;29.80
47845;DHT22;33605;48.822;8.796;2023-02-14T19:26:50;9.90;30.90
47845;DHT22;33605;48.822;8.796;2023-02-14T19:29:18;9.70;30.80
47845;DHT22;33605;48.822;8.796;2023-02-14T19:31:46;9.60;30.80
47845;DHT22;33605;48.822;8.796;2023-02-14T19:34:23;9.50;30.90
47845;DHT22;33605;48.822;8.796;2023-02-14T19:36:50;9.40;31.00
47845;DHT22;33605;48.822;8.796;2023-02-14T19:39:17;9.30;30.80
47845;DHT22;33605;48.822;8.796;2023-02-14T19:41:44;9.20;30.80
47845;DHT22;33605;48.822;8.796;2023-02-14T19:44:11;9.20;30.80
47845;DHT22;33605;48.822;8.796;2023-02-14T19:46:42;9.10;31.40
47845;DHT22;33605;48.822;8.796;2023-02-14T19:49:11;9.00;31.80
47845;DHT22;33605;48.822;8.796;2023-02-14T19:51:37;9.00;32.00
47845;DHT22;33605;48.822;8.796;2023-02-14T19:54:04;8.80;32.00
47845;DHT22;33605;48.822;8.796;2023-02-14T19:56:33;8.80;32.30
47845;DHT22;33605;48.822;8.796;2023-02-14T19:59:00;8.70;32.40
47845;DHT22;33605;48.822;8.796;2023-02-14T20:01:40;8.60;32.40
47845;DHT22;33605;48.822;8.796;2023-02-14T20:04:08;8.60;32.90
47845;DHT22;33605;48.822;8.796;2023-02-14T20:06:35;8.50;33.20
47845;DHT22;33605;48.822;8.796;2023-02-14T20:09:01;8.40;33.30
47845;DHT22;33605;48.822;8.796;2023-02-14T20:13:55;8.30;33.50
47845;DHT22;33605;48.822;8.796;2023-02-14T20:16:22;8.20;33.20
47845;DHT22;33605;48.822;8.796;2023-02-14T20:18:48;8.20;33.50
47845;DHT22;33605;48.822;8.796;2023-02-14T20:21:15;8.10;33.20
47845;DHT22;33605;48.822;8.796;2023-02-14T20:23:43;8.10;33.10
47845;DHT22;33605;48.822;8.796;2023-02-14T20:26:11;8.00;33.00
47845;DHT22;33605;48.822;8.796;2023-02-14T20:28:37;8.00;33.10
47845;DHT22;33605;48.822;8.796;2023-02-14T20:31:12;7.90;33.10
47845;DHT22;33605;48.822;8.796;2023-02-14T20:33:39;7.90;33.40
47845;DHT22;33605;48.822;8.796;2023-02-14T20:36:05;7.90;33.40
47845;DHT22;33605;48.822;8.796;2023-02-14T20:38:33;7.80;33.50
47845;DHT22;33605;48.822;8.796;2023-02-14T20:41:03;7.80;33.70
47845;DHT22;33605;48.822;8.796;2023-02-14T20:43:29;7.80;33.80
47845;DHT22;33605;48.822;8.796;2023-02-14T20:46:01;7.70;33.80
47845;DHT22;33605;48.822;8.796;2023-02-14T20:48:28;7.70;34.00
47845;DHT22;33605;48.822;8.796;2023-02-14T20:50:55;7.60;34.00
47845;DHT22;33605;48.822;8.796;2023-02-14T20:53:20;7.60;34.10
47845;DHT22;33605;48.822;8.796;2023-02-14T20:55:52;7.50;34.10
47845;DHT22;33605;48.822;8.796;2023-02-14T20:58:18;7.40;34.70
47845;DHT22;33605;48.822;8.796;2023-02-14T21:00:44;7.40;33.90
47845;DHT22;33605;48.822;8.796;2023-02-14T21:03:10;7.30;33.70
47845;DHT22;33605;48.822;8.796;2023-02-14T21:05:36;7.30;33.80
47845;DHT22;33605;48.822;8.796;2023-02-14T21:08:01;7.20;33.80
47845;DHT22;33605;48.822;8.796;2023-02-14T21:10:27;7.20;33.80
47845;DHT22;33605;48.822;8.796;2023-02-14T21:12:54;7.10;33.70
47845;DHT22;33605;48.822;8.796;2023-02-14T21:15:20;7.10;33.70
47845;DHT22;33605;48.822;8.796;2023-02-14T21:17:46;7.00;33.60
47845;DHT22;33605;48.822;8.796;2023-02-14T21:20:12;7.00;33.80
47845;DHT22;33605;48.822;8.796;2023-02-14T21:22:39;6.90;33.80
47845;DHT22;33605;48.822;8.796;2023-02-14T21:25:05;6.80;33.60
47845;DHT22;33605;48.822;8.796;2023-02-14T21:27:32;6.80;33.80
47845;DHT22;33605;48.822;8.796;2023-02-14T21:29:57;6.70;33.80
47845;DHT22;33605;48.822;8.796;2023-02-14T21:32:23;6.70;33.90
47845;DHT22;33605;48.822;8.796;2023-02-14T21:34:48;6.70;34.00
47845;DHT22;33605;48.822;8.796;2023-02-14T21:37:15;6.60;34.00
47845;DHT22;33605;48.822;8.796;2023-02-14T21:39:40;6.60;34.20
47845;DHT22;33605;48.822;8.796;2023-02-14T21:42:06;6.50;34.30
47845;DHT22;33605;48.822;8.796;2023-02-14T21:44:33;6.50;34.60
47845;DHT22;33605;48.822;8.796;2023-02-14T21:47:18;6.50;34.90
47845;DHT22;33605;48.822;8.796;2023-02-14T21:49:43;6.50;35.00
47845;DHT22;33605;48.822;8.796;2023-02-14T21:52:27;6.50;35.30
47845;DHT22;33605;48.822;8.796;2023-02-14T21:54:56;6.40;35.20
47845;DHT22;33605;48.822;8.796;2023-02-14T21:57:21;6.40;35.30
47845;DHT22;33605;48.822;8.796;2023-02-14T21:59:47;6.40;35.60
47845;DHT22;33605;48.822;8.796;2023-02-14T22:02:13;6.40;35.60
47845;DHT22;33605;48.822;8.796;2023-02-14T22:04:38;6.40;35.60
47845;DHT22;33605;48.822;8.796;2023-02-14T22:07:04;6.40;35.50
47845;DHT22;33605;48.822;8.796;2023-02-14T22:09:30;6.30;35.40
47845;DHT22;33605;48.822;8.796;2023-02-14T22:11:55;6.40;35.50
47845;DHT22;33605;48.822;8.796;2023-02-14T22:14:21;6.40;35.60
47845;DHT22;33605;48.822;8.796;2023-02-14T22:16:47;6.30;35.80
47845;DHT22;33605;48.822;8.796;2023-02-14T22:19:14;6.30;35.70
47845;DHT22;33605;48.822;8.796;2023-02-14T22:21:41;6.30;35.70
47845;DHT22;33605;48.822;8.796;2023-02-14T22:24:08;6.30;35.80
47845;DHT22;33605;48.822;8.796;2023-02-14T22:26:35;6.20;35.70
47845;DHT22;33605;48.822;8.796;2023-02-14T22:29:06;6.20;35.80
47845;DHT22;33605;48.822;8.796;2023-02-14T22:31:37;6.30;36.00
47845;DHT22;33605;48.822;8.796;2023-02-14T22:34:05;6.20;36.20
47845;DHT22;33605;48.822;8.796;2023-02-14T22:36:30;6.20;36.10
47845;DHT22;33605;48.822;8.796;2023-02-14T22:38:56;6.20;35.90
47845;DHT22;33605;48.822;8.796;2023-02-14T22:41:23;6.10;35.70
47845;DHT22;33605;48.822;8.796;2023-02-14T22:43:50;6.20;35.80
47845;DHT22;33605;48.822;8.796;2023-02-14T22:46:18;6.10;35.70
47845;DHT22;33605;48.822;8.796;2023-02-14T22:48:46;6.10;35.60
47845;DHT22;33605;48.822;8.796;2023-02-14T22:51:38;6.10;35.70
47845;DHT22;33605;48.822;8.796;2023-02-14T22:54:13;6.10;35.80
47845;DHT22;33605;48.822;8.796;2023-02-14T22:56:45;6.00;35.60
47845;DHT22;33605;48.822;8.796;2023-02-14T22:59:21;6.00;35.60
47845;DHT22;33605;48.822;8.796;2023-02-14T23:01:49;6.00;35.60
47845;DHT22;33605;48.822;8.796;2023-02-14T23:04:16;6.00;35.60
47845;DHT22;33605;48.822;8.796;2023-02-14T23:06:42;6.00;35.80
47845;DHT22;33605;48.822;8.796;2023-02-14T23:09:10;5.90;35.80
47845;DHT22;33605;48.822;8.796;2023-02-14T23:11:38;5.90;36.20
47845;DHT22;33605;48.822;8.796;2023-02-14T23:14:04;5.90;36.20
47845;DHT22;33605;48.822;8.796;2023-02-14T23:16:49;5.80;36.00
47845;DHT22;33605;48.822;8.796;2023-02-14T23:19:35;5.80;36.00
47845;DHT22;33605;48.822;8.796;2023-02-14T23:22:35;5.80;36.10
47845;DHT22;33605;48.822;8.796;2023-02-14T23:25:02;5.80;36.80
47845;DHT22;33605;48.822;8.796;2023-02-14T23:27:38;5.80;36.20
47845;DHT22;33605;48.822;8.796;2023-02-14T23:30:08;5.80;36.20
47845;DHT22;33605;48.822;8.796;2023-02-14T23:32:34;5.80;36.10
47845;DHT22;33605;48.822;8.796;2023-02-14T23:35:00;5.70;36.10
47845;DHT22;33605;48.822;8.796;2023-02-14T23:37:25;5.70;36.20
47845;DHT22;33605;48.822;8.796;2023-02-14T23:39:51;5.70;36.20
47845;DHT22;33605;48.822;8.796;2023-02-14T23:42:17;5.70;36.30
47845;DHT22;33605;48.822;8.796;2023-02-14T23:44:44;5.70;36.40
47845;DHT22;33605;48.822;8.796;2023-02-14T23:47:10;5.70;36.30
47845;DHT22;33605;48.822;8.796;2023-02-14T23:49:38;5.70;36.30
47845;DHT22;33605;48.822;8.796;2023-02-14T23:52:06;5.70;36.30
47845;DHT22;33605;48.822;8.796;2023-02-14T23:54:31;5.60;36.10
47845;DHT22;33605;48.822;8.796;2023-02-14T23:56:58;5.60;36.00
47845;DHT22;33605;48.822;8.796;2023-02-14T23:59:24;5.60;36.00
